sensor_id;sensor_type;location;lat;lon;timestamp;pressure;altitude;pressure_sealevel;temperature;humidity
25350;BME280;13302;48.796;11.978;2023-02-26T00:02:02;96018.53;;;4.24;32.54
25350;BME280;13302;48.796;11.978;2023-02-26T00:04:49;96021.00;;;4.17;32.54
25350;BME280;13302;48.796;11.978;2023-02-26T00:07:37;96022.28;;;4.11;32.43
25350;BME280;13302;48.796;11.978;2023-02-26T00:10:24;96029.22;;;4.08;32.48
25350;BME280;13302;48.796;11.978;2023-02-26T00:13:11;96029.88;;;4.05;32.36
25350;BME280;13302;48.796;11.978;2023-02-26T00:15:59;96031.34;;;4.03;32.57
25350;BME280;13302;48.796;11.978;2023-02-26T00:18:46;96031.66;;;4.01;32.62
25350;BME280;13302;48.796;11.978;2023-02-26T00:21:34;96041.00;;;4.00;32.56
25350;BME280;13302;48.796;11.978;2023-02-26T00:24:21;96035.19;;;4.02;32.47
25350;BME280;13302;48.796;11.978;2023-02-26T00:27:10;96044.22;;;4.02;32.49
25350;BME280;13302;48.796;11.978;2023-02-26T00:29:57;96049.38;;;4.04;32.33
25350;BME280;13302;48.796;11.978;2023-02-26T00:32:44;96047.28;;;4.01;32.36
25350;BME280;13302;48.796;11.978;2023-02-26T00:35:32;96046.00;;;3.98;32.17
25350;BME280;13302;48.796;11.978;2023-02-26T00:38:19;96040.84;;;3.97;32.30
25350;BME280;13302;48.796;11.978;2023-02-26T00:41:06;96050.19;;;3.96;32.26
25350;BME280;13302;48.796;11.978;2023-02-26T00:43:54;96048.28;;;3.96;32.33
25350;BME280;13302;48.796;11.978;2023-02-26T00:46:44;96047.94;;;3.98;32.41
25350;BME280;13302;48.796;11.978;2023-02-26T00:55:38;96060.31;;;4.04;32.56
25350;BME280;13302;48.796;11.978;2023-02-26T00:58:25;96055.94;;;4.03;32.50
25350;BME280;13302;48.796;11.978;2023-02-26T01:01:12;96057.88;;;4.02;32.42
25350;BME280;13302;48.796;11.978;2023-02-26T01:04:00;96060.63;;;4.02;32.38
25350;BME280;13302;48.796;11.978;2023-02-26T01:06:51;96056.28;;;4.01;32.56
25350;BME280;13302;48.796;11.978;2023-02-26T01:09:39;96063.34;;;4.02;32.51
25350;BME280;13302;48.796;11.978;2023-02-26T01:12:26;96062.53;;;4.02;32.40
25350;BME280;13302;48.796;11.978;2023-02-26T01:15:13;96070.44;;;4.03;32.56
25350;BME280;13302;48.796;11.978;2023-02-26T01:18:12;96063.69;;;4.01;32.43
25350;BME280;13302;48.796;11.978;2023-02-26T01:21:03;96066.44;;;4.01;32.54
25350;BME280;13302;48.796;11.978;2023-02-26T01:23:51;96062.91;;;4.00;32.26
25350;BME280;13302;48.796;11.978;2023-02-26T01:26:38;96066.25;;;3.97;32.24
25350;BME280;13302;48.796;11.978;2023-02-26T01:29:25;96065.00;;;3.95;32.25
25350;BME280;13302;48.796;11.978;2023-02-26T01:35:22;96071.75;;;3.89;32.46
25350;BME280;13302;48.796;11.978;2023-02-26T01:41:51;96074.69;;;3.84;32.14
25350;BME280;13302;48.796;11.978;2023-02-26T01:44:58;96069.41;;;3.79;32.09
25350;BME280;13302;48.796;11.978;2023-02-26T01:47:52;96065.41;;;3.76;32.13
25350;BME280;13302;48.796;11.978;2023-02-26T01:50:43;96073.91;;;3.75;32.06
25350;BME280;13302;48.796;11.978;2023-02-26T01:53:30;96073.09;;;3.74;32.04
25350;BME280;13302;48.796;11.978;2023-02-26T01:56:18;96068.44;;;3.75;31.99
25350;BME280;13302;48.796;11.978;2023-02-26T01:59:07;96075.53;;;3.76;31.93
25350;BME280;13302;48.796;11.978;2023-02-26T02:01:56;96074.72;;;3.75;31.88
25350;BME280;13302;48.796;11.978;2023-02-26T02:04:45;96067.19;;;3.72;31.76
25350;BME280;13302;48.796;11.978;2023-02-26T02:07:33;96068.31;;;3.71;31.85
25350;BME280;13302;48.796;11.978;2023-02-26T02:10:20;96069.72;;;3.68;31.66
25350;BME280;13302;48.796;11.978;2023-02-26T02:13:26;96074.25;;;3.64;31.63
25350;BME280;13302;48.796;11.978;2023-02-26T02:22:43;96076.84;;;3.52;31.74
25350;BME280;13302;48.796;11.978;2023-02-26T02:28:37;96088.13;;;3.42;31.64
25350;BME280;13302;48.796;11.978;2023-02-26T02:31:32;96087.16;;;3.38;31.63
25350;BME280;13302;48.796;11.978;2023-02-26T02:34:28;96088.59;;;3.36;31.67
25350;BME280;13302;48.796;11.978;2023-02-26T02:40:26;96094.56;;;3.29;31.47
25350;BME280;13302;48.796;11.978;2023-02-26T02:43:21;96100.69;;;3.26;31.51
25350;BME280;13302;48.796;11.978;2023-02-26T02:46:27;96106.00;;;3.23;31.35
25350;BME280;13302;48.796;11.978;2023-02-26T02:49:21;96106.63;;;3.19;31.45
25350;BME280;13302;48.796;11.978;2023-02-26T02:52:25;96107.25;;;3.16;31.17
25350;BME280;13302;48.796;11.978;2023-02-26T02:58:10;96118.50;;;3.15;31.42
25350;BME280;13302;48.796;11.978;2023-02-26T03:01:06;96123.16;;;3.14;31.28
25350;BME280;13302;48.796;11.978;2023-02-26T03:06:50;96121.22;;;3.15;31.17
25350;BME280;13302;48.796;11.978;2023-02-26T03:09:37;96123.78;;;3.11;31.25
25350;BME280;13302;48.796;11.978;2023-02-26T03:12:26;96126.03;;;3.09;31.27
25350;BME280;13302;48.796;11.978;2023-02-26T03:15:25;96128.25;;;3.07;31.08
25350;BME280;13302;48.796;11.978;2023-02-26T03:18:31;96129.06;;;3.08;31.27
25350;BME280;13302;48.796;11.978;2023-02-26T03:21:55;96131.34;;;3.06;31.23
25350;BME280;13302;48.796;11.978;2023-02-26T03:25:11;96128.75;;;3.01;31.08
25350;BME280;13302;48.796;11.978;2023-02-26T03:34:18;96134.84;;;2.89;31.12
25350;BME280;13302;48.796;11.978;2023-02-26T03:37:16;96134.84;;;2.89;31.21
25350;BME280;13302;48.796;11.978;2023-02-26T03:40:10;96153.97;;;2.89;31.34
25350;BME280;13302;48.796;11.978;2023-02-26T03:43:10;96154.75;;;2.90;31.24
25350;BME280;13302;48.796;11.978;2023-02-26T03:46:03;96161.66;;;2.87;31.25
25350;BME280;13302;48.796;11.978;2023-02-26T03:48:52;96160.53;;;2.88;31.20
25350;BME280;13302;48.796;11.978;2023-02-26T03:51:43;96160.53;;;2.88;31.25
25350;BME280;13302;48.796;11.978;2023-02-26T03:54:54;96173.53;;;2.91;31.04
25350;BME280;13302;48.796;11.978;2023-02-26T03:58:03;96170.97;;;2.95;31.03
25350;BME280;13302;48.796;11.978;2023-02-26T04:01:19;96174.50;;;2.95;30.90
25350;BME280;13302;48.796;11.978;2023-02-26T04:04:31;96178.53;;;2.98;30.87
25350;BME280;13302;48.796;11.978;2023-02-26T04:07:19;96179.31;;;2.98;30.77
25350;BME280;13302;48.796;11.978;2023-02-26T04:10:09;96183.50;;;2.96;30.75
25350;BME280;13302;48.796;11.978;2023-02-26T04:13:01;96183.34;;;2.92;30.68
25350;BME280;13302;48.796;11.978;2023-02-26T04:15:48;96178.53;;;2.89;30.68
25350;BME280;13302;48.796;11.978;2023-02-26T04:18:35;96182.38;;;2.88;30.85
25350;BME280;13302;48.796;11.978;2023-02-26T04:21:24;96188.13;;;2.87;30.62
25350;BME280;13302;48.796;11.978;2023-02-26T04:24:11;96188.47;;;2.85;30.62
25350;BME280;13302;48.796;11.978;2023-02-26T04:26:58;96193.44;;;2.83;30.74
25350;BME280;13302;48.796;11.978;2023-02-26T04:29:45;96201.16;;;2.81;30.64
25350;BME280;13302;48.796;11.978;2023-02-26T04:32:32;96205.81;;;2.81;30.64
25350;BME280;13302;48.796;11.978;2023-02-26T04:35:20;96202.25;;;2.80;30.57
25350;BME280;13302;48.796;11.978;2023-02-26T04:38:07;96208.84;;;2.79;30.64
25350;BME280;13302;48.796;11.978;2023-02-26T04:40:54;96208.84;;;2.79;30.54
25350;BME280;13302;48.796;11.978;2023-02-26T04:43:42;96217.84;;;2.80;30.70
25350;BME280;13302;48.796;11.978;2023-02-26T04:46:45;96214.78;;;2.81;30.43
25350;BME280;13302;48.796;11.978;2023-02-26T04:49:32;96203.88;;;2.81;30.61
25350;BME280;13302;48.796;11.978;2023-02-26T04:52:19;96215.59;;;2.82;30.67
25350;BME280;13302;48.796;11.978;2023-02-26T04:55:07;96217.84;;;2.80;30.63
25350;BME280;13302;48.796;11.978;2023-02-26T04:57:57;96230.50;;;2.75;30.84
25350;BME280;13302;48.796;11.978;2023-02-26T05:00:51;96228.72;;;2.71;30.75
25350;BME280;13302;48.796;11.978;2023-02-26T05:03:40;96230.47;;;2.67;30.87
25350;BME280;13302;48.796;11.978;2023-02-26T05:06:28;96231.09;;;2.64;30.60
25350;BME280;13302;48.796;11.978;2023-02-26T05:09:15;96230.28;;;2.63;30.82
25350;BME280;13302;48.796;11.978;2023-02-26T05:12:03;96234.13;;;2.62;30.93
25350;BME280;13302;48.796;11.978;2023-02-26T05:14:50;96232.53;;;2.61;30.87
25350;BME280;13302;48.796;11.978;2023-02-26T05:17:37;96243.44;;;2.61;30.82
25350;BME280;13302;48.796;11.978;2023-02-26T05:20:24;96245.38;;;2.61;30.83
25350;BME280;13302;48.796;11.978;2023-02-26T05:23:11;96249.22;;;2.60;30.90
25350;BME280;13302;48.796;11.978;2023-02-26T05:25:59;96248.72;;;2.58;30.81
25350;BME280;13302;48.796;11.978;2023-02-26T05:28:46;96248.72;;;2.58;31.05
25350;BME280;13302;48.796;11.978;2023-02-26T05:31:33;96253.88;;;2.59;31.06
25350;BME280;13302;48.796;11.978;2023-02-26T05:34:20;96256.31;;;2.61;30.79
25350;BME280;13302;48.796;11.978;2023-02-26T05:37:07;96261.13;;;2.64;31.18
25350;BME280;13302;48.796;11.978;2023-02-26T05:39:54;96258.06;;;2.65;31.08
25350;BME280;13302;48.796;11.978;2023-02-26T05:42:41;96267.06;;;2.66;31.14
25350;BME280;13302;48.796;11.978;2023-02-26T05:45:28;96269.47;;;2.67;31.18
25350;BME280;13302;48.796;11.978;2023-02-26T05:48:15;96264.31;;;2.66;31.14
25350;BME280;13302;48.796;11.978;2023-02-26T05:51:02;96266.56;;;2.64;31.21
25350;BME280;13302;48.796;11.978;2023-02-26T05:53:49;96269.59;;;2.62;31.22
25350;BME280;13302;48.796;11.978;2023-02-26T05:56:36;96281.63;;;2.61;31.54
25350;BME280;13302;48.796;11.978;2023-02-26T05:59:24;96289.03;;;2.61;31.42
25350;BME280;13302;48.796;11.978;2023-02-26T06:02:10;96283.09;;;2.59;31.63
25350;BME280;13302;48.796;11.978;2023-02-26T06:04:58;96288.53;;;2.59;31.64
25350;BME280;13302;48.796;11.978;2023-02-26T06:07:45;96298.97;;;2.57;31.58
25350;BME280;13302;48.796;11.978;2023-02-26T06:10:33;96304.09;;;2.58;31.63
25350;BME280;13302;48.796;11.978;2023-02-26T06:13:20;96308.28;;;2.56;31.74
25350;BME280;13302;48.796;11.978;2023-02-26T06:16:07;96311.47;;;2.58;31.72
25350;BME280;13302;48.796;11.978;2023-02-26T06:18:54;96313.41;;;2.57;31.84
25350;BME280;13302;48.796;11.978;2023-02-26T06:21:41;96317.56;;;2.55;31.79
25350;BME280;13302;48.796;11.978;2023-02-26T06:24:28;96328.47;;;2.55;31.89
25350;BME280;13302;48.796;11.978;2023-02-26T06:27:15;96328.00;;;2.53;32.03
25350;BME280;13302;48.796;11.978;2023-02-26T06:30:03;96327.00;;;2.49;32.17
25350;BME280;13302;48.796;11.978;2023-02-26T06:32:51;96327.63;;;2.46;32.38
25350;BME280;13302;48.796;11.978;2023-02-26T06:35:38;96334.22;;;2.45;32.30
25350;BME280;13302;48.796;11.978;2023-02-26T06:38:26;96340.78;;;2.44;32.23
25350;BME280;13302;48.796;11.978;2023-02-26T06:41:13;96344.63;;;2.43;32.35
25350;BME280;13302;48.796;11.978;2023-02-26T06:44:00;96345.72;;;2.42;32.40
25350;BME280;13302;48.796;11.978;2023-02-26T06:46:47;96352.31;;;2.41;32.57
25350;BME280;13302;48.796;11.978;2023-02-26T06:49:34;96352.31;;;2.41;32.52
25350;BME280;13302;48.796;11.978;2023-02-26T06:52:21;96370.59;;;2.40;32.53
25350;BME280;13302;48.796;11.978;2023-02-26T06:55:09;96369.78;;;2.40;32.57
25350;BME280;13302;48.796;11.978;2023-02-26T06:57:56;96367.06;;;2.40;32.66
25350;BME280;13302;48.796;11.978;2023-02-26T07:00:44;96368.47;;;2.37;32.58
25350;BME280;13302;48.796;11.978;2023-02-26T07:03:31;96366.25;;;2.39;32.61
25350;BME280;13302;48.796;11.978;2023-02-26T07:06:18;96379.25;;;2.42;32.59
25350;BME280;13302;48.796;11.978;2023-02-26T07:09:13;96380.06;;;2.43;32.63
25350;BME280;13302;48.796;11.978;2023-02-26T07:12:00;96390.69;;;2.44;32.60
25350;BME280;13302;48.796;11.978;2023-02-26T07:14:48;96384.59;;;2.47;32.59
25350;BME280;13302;48.796;11.978;2023-02-26T07:17:35;96388.63;;;2.50;32.58
25350;BME280;13302;48.796;11.978;2023-02-26T07:20:22;96395.06;;;2.54;32.52
25350;BME280;13302;48.796;11.978;2023-02-26T07:23:09;96397.19;;;2.57;32.39
25350;BME280;13302;48.796;11.978;2023-02-26T07:25:56;96396.56;;;2.60;32.34
25350;BME280;13302;48.796;11.978;2023-02-26T07:28:44;96404.44;;;2.61;32.27
25350;BME280;13302;48.796;11.978;2023-02-26T07:31:31;96399.47;;;2.63;32.34
25350;BME280;13302;48.796;11.978;2023-02-26T07:34:18;96409.47;;;2.68;32.17
25350;BME280;13302;48.796;11.978;2023-02-26T07:37:05;96407.72;;;2.72;32.15
25350;BME280;13302;48.796;11.978;2023-02-26T07:39:52;96410.16;;;2.73;32.14
25350;BME280;13302;48.796;11.978;2023-02-26T07:42:40;96402.28;;;2.72;31.88
25350;BME280;13302;48.796;11.978;2023-02-26T07:45:27;96418.13;;;2.70;32.21
25350;BME280;13302;48.796;11.978;2023-02-26T07:48:14;96416.53;;;2.69;32.34
25350;BME280;13302;48.796;11.978;2023-02-26T07:51:03;96420.38;;;2.68;32.23
25350;BME280;13302;48.796;11.978;2023-02-26T07:53:53;96434.84;;;2.68;32.29
25350;BME280;13302;48.796;11.978;2023-02-26T07:56:40;96434.03;;;2.68;32.18
25350;BME280;13302;48.796;11.978;2023-02-26T07:59:28;96449.28;;;2.69;32.29
25350;BME280;13302;48.796;11.978;2023-02-26T08:02:15;96452.81;;;2.69;32.04
25350;BME280;13302;48.796;11.978;2023-02-26T08:05:02;96466.66;;;2.73;32.11
25350;BME280;13302;48.796;11.978;2023-02-26T08:07:50;96464.75;;;2.73;32.00
25350;BME280;13302;48.796;11.978;2023-02-26T08:10:37;96472.59;;;2.75;31.99
25350;BME280;13302;48.796;11.978;2023-02-26T08:13:27;96470.19;;;2.73;32.15
25350;BME280;13302;48.796;11.978;2023-02-26T08:16:14;96476.44;;;2.74;32.10
25350;BME280;13302;48.796;11.978;2023-02-26T08:19:02;96480.78;;;2.75;32.06
25350;BME280;13302;48.796;11.978;2023-02-26T08:21:49;96478.88;;;2.75;32.02
25350;BME280;13302;48.796;11.978;2023-02-26T08:24:36;96484.84;;;2.77;31.85
25350;BME280;13302;48.796;11.978;2023-02-26T08:27:25;96480.50;;;2.76;31.93
25350;BME280;13302;48.796;11.978;2023-02-26T08:30:12;96489.78;;;2.75;31.99
25350;BME280;13302;48.796;11.978;2023-02-26T08:32:59;96492.22;;;2.77;31.93
25350;BME280;13302;48.796;11.978;2023-02-26T08:35:48;96496.25;;;2.80;31.90
25350;BME280;13302;48.796;11.978;2023-02-26T08:38:35;96501.69;;;2.80;31.88
25350;BME280;13302;48.796;11.978;2023-02-26T08:41:22;96498.16;;;2.79;32.28
25350;BME280;13302;48.796;11.978;2023-02-26T08:44:09;96498.16;;;2.79;32.14
25350;BME280;13302;48.796;11.978;2023-02-26T08:46:57;96507.34;;;2.83;32.16
25350;BME280;13302;48.796;11.978;2023-02-26T08:49:44;96514.91;;;2.86;32.36
25350;BME280;13302;48.796;11.978;2023-02-26T08:52:31;96512.06;;;2.91;32.42
25350;BME280;13302;48.796;11.978;2023-02-26T08:55:18;96519.84;;;2.98;32.24
25350;BME280;13302;48.796;11.978;2023-02-26T08:58:05;96530.94;;;3.01;32.14
25350;BME280;13302;48.796;11.978;2023-02-26T09:00:53;96522.13;;;3.04;32.18
25350;BME280;13302;48.796;11.978;2023-02-26T09:03:40;96530.50;;;3.08;32.16
25350;BME280;13302;48.796;11.978;2023-02-26T09:06:27;96546.25;;;3.11;32.21
25350;BME280;13302;48.796;11.978;2023-02-26T09:09:14;96549.19;;;3.14;32.30
25350;BME280;13302;48.796;11.978;2023-02-26T09:12:02;96553.72;;;3.19;32.38
25350;BME280;13302;48.796;11.978;2023-02-26T09:14:49;96569.53;;;3.22;32.46
25350;BME280;13302;48.796;11.978;2023-02-26T09:17:36;96571.81;;;3.29;32.26
25350;BME280;13302;48.796;11.978;2023-02-26T09:20:23;96570.88;;;3.33;32.31
25350;BME280;13302;48.796;11.978;2023-02-26T09:23:11;96575.88;;;3.40;32.30
25350;BME280;13302;48.796;11.978;2023-02-26T09:25:58;96574.66;;;3.46;32.47
25350;BME280;13302;48.796;11.978;2023-02-26T09:28:45;96578.69;;;3.48;32.24
25350;BME280;13302;48.796;11.978;2023-02-26T09:31:32;96569.53;;;3.53;32.41
25350;BME280;13302;48.796;11.978;2023-02-26T09:34:19;96571.34;;;3.57;32.27
25350;BME280;13302;48.796;11.978;2023-02-26T09:37:08;96571.84;;;3.59;32.03
25350;BME280;13302;48.796;11.978;2023-02-26T09:39:55;96592.28;;;3.62;31.88
25350;BME280;13302;48.796;11.978;2023-02-26T09:43:56;96580.22;;;3.63;31.66
25350;BME280;13302;48.796;11.978;2023-02-26T09:55:18;96582.50;;;3.69;31.60
25350;BME280;13302;48.796;11.978;2023-02-26T10:01:38;96580.31;;;3.80;31.83
25350;BME280;13302;48.796;11.978;2023-02-26T10:04:59;96588.53;;;3.89;31.86
25350;BME280;13302;48.796;11.978;2023-02-26T10:08:05;96594.88;;;3.98;31.44
25350;BME280;13302;48.796;11.978;2023-02-26T10:11:09;96595.84;;;4.02;31.51
25350;BME280;13302;48.796;11.978;2023-02-26T10:14:11;96598.47;;;4.07;31.29
25350;BME280;13302;48.796;11.978;2023-02-26T10:17:06;96612.00;;;4.12;31.26
25350;BME280;13302;48.796;11.978;2023-02-26T10:19:59;96615.09;;;4.19;31.25
25350;BME280;13302;48.796;11.978;2023-02-26T10:26:01;96635.22;;;4.23;30.63
25350;BME280;13302;48.796;11.978;2023-02-26T10:32:23;96628.59;;;4.15;30.75
25350;BME280;13302;48.796;11.978;2023-02-26T10:35:16;96634.38;;;4.14;30.87
25350;BME280;13302;48.796;11.978;2023-02-26T10:38:11;96625.69;;;4.12;30.99
25350;BME280;13302;48.796;11.978;2023-02-26T10:41:03;96627.31;;;4.13;30.95
25350;BME280;13302;48.796;11.978;2023-02-26T10:44:10;96628.59;;;4.15;30.94
25350;BME280;13302;48.796;11.978;2023-02-26T10:50:28;96637.00;;;4.28;30.83
25350;BME280;13302;48.796;11.978;2023-02-26T10:53:15;96642.19;;;4.29;30.78
25350;BME280;13302;48.796;11.978;2023-02-26T10:56:19;96647.66;;;4.29;30.90
25350;BME280;13302;48.796;11.978;2023-02-26T10:59:08;96647.66;;;4.29;30.50
25350;BME280;13302;48.796;11.978;2023-02-26T11:01:55;96644.41;;;4.27;30.51
25350;BME280;13302;48.796;11.978;2023-02-26T11:04:43;96636.50;;;4.26;30.48
25350;BME280;13302;48.796;11.978;2023-02-26T11:07:31;96647.44;;;4.26;30.62
25350;BME280;13302;48.796;11.978;2023-02-26T11:10:22;96635.72;;;4.25;30.38
25350;BME280;13302;48.796;11.978;2023-02-26T11:13:10;96629.44;;;4.25;30.36
25350;BME280;13302;48.796;11.978;2023-02-26T11:16:18;96634.41;;;4.23;30.18
25350;BME280;13302;48.796;11.978;2023-02-26T11:19:06;96634.56;;;4.26;30.15
25350;BME280;13302;48.796;11.978;2023-02-26T11:21:55;96629.63;;;4.28;30.09
25350;BME280;13302;48.796;11.978;2023-02-26T11:24:47;96633.63;;;4.31;30.06
25350;BME280;13302;48.796;11.978;2023-02-26T11:27:37;96635.75;;;4.34;29.76
25350;BME280;13302;48.796;11.978;2023-02-26T11:30:26;96618.19;;;4.35;29.57
25350;BME280;13302;48.796;11.978;2023-02-26T11:33:20;96622.84;;;4.34;29.70
25350;BME280;13302;48.796;11.978;2023-02-26T11:36:11;96605.97;;;4.32;29.65
25350;BME280;13302;48.796;11.978;2023-02-26T11:39:13;96613.88;;;4.34;29.89
25350;BME280;13302;48.796;11.978;2023-02-26T11:42:02;96605.03;;;4.37;29.80
25350;BME280;13302;48.796;11.978;2023-02-26T11:44:50;96600.19;;;4.42;29.92
25350;BME280;13302;48.796;11.978;2023-02-26T11:47:37;96606.97;;;4.45;29.41
25350;BME280;13302;48.796;11.978;2023-02-26T11:50:24;96606.31;;;4.48;29.00
25350;BME280;13302;48.796;11.978;2023-02-26T11:53:25;96606.16;;;4.44;29.15
25350;BME280;13302;48.796;11.978;2023-02-26T11:56:21;96595.53;;;4.43;29.07
25350;BME280;13302;48.796;11.978;2023-02-26T11:59:20;96595.06;;;4.41;29.23
25350;BME280;13302;48.796;11.978;2023-02-26T12:02:12;96593.44;;;4.40;29.01
25350;BME280;13302;48.796;11.978;2023-02-26T12:05:02;96580.56;;;4.40;28.92
25350;BME280;13302;48.796;11.978;2023-02-26T12:07:51;96580.56;;;4.40;29.12
25350;BME280;13302;48.796;11.978;2023-02-26T12:10:44;96581.38;;;4.41;29.09
25350;BME280;13302;48.796;11.978;2023-02-26T12:20:31;96582.34;;;4.45;28.59
25350;BME280;13302;48.796;11.978;2023-02-26T12:32:53;96602.16;;;4.42;28.52
25350;BME280;13302;48.796;11.978;2023-02-26T12:35:50;96601.50;;;4.45;28.44
25350;BME280;13302;48.796;11.978;2023-02-26T12:38:51;96609.56;;;4.50;28.80
25350;BME280;13302;48.796;11.978;2023-02-26T12:41:59;96600.25;;;4.59;28.70
25350;BME280;13302;48.796;11.978;2023-02-26T13:00:33;96648.34;;;4.83;28.64
25350;BME280;13302;48.796;11.978;2023-02-26T13:03:40;96649.47;;;4.82;28.79
25350;BME280;13302;48.796;11.978;2023-02-26T13:06:43;96649.13;;;4.83;28.57
25350;BME280;13302;48.796;11.978;2023-02-26T13:10:09;96645.25;;;4.84;28.54
25350;BME280;13302;48.796;11.978;2023-02-26T13:19:16;96631.91;;;4.91;28.17
25350;BME280;13302;48.796;11.978;2023-02-26T13:22:17;96642.84;;;4.91;28.14
25350;BME280;13302;48.796;11.978;2023-02-26T13:25:18;96638.53;;;4.90;28.42
25350;BME280;13302;48.796;11.978;2023-02-26T13:28:42;96632.41;;;4.93;28.42
25350;BME280;13302;48.796;11.978;2023-02-26T13:34:38;96656.56;;;5.00;28.36
25350;BME280;13302;48.796;11.978;2023-02-26T13:37:30;96642.56;;;5.01;28.28
25350;BME280;13302;48.796;11.978;2023-02-26T13:46:35;96646.06;;;4.85;28.12
25350;BME280;13302;48.796;11.978;2023-02-26T13:52:35;96643.41;;;4.71;28.00
25350;BME280;13302;48.796;11.978;2023-02-26T13:55:44;96643.25;;;4.68;28.25
25350;BME280;13302;48.796;11.978;2023-02-26T13:58:38;96643.91;;;4.65;28.36
25350;BME280;13302;48.796;11.978;2023-02-26T14:04:52;96647.44;;;4.65;27.96
25350;BME280;13302;48.796;11.978;2023-02-26T14:07:50;96656.13;;;4.67;28.12
25350;BME280;13302;48.796;11.978;2023-02-26T14:10:58;96655.53;;;4.70;28.10
25350;BME280;13302;48.796;11.978;2023-02-26T14:14:11;96656.19;;;4.76;28.26
25350;BME280;13302;48.796;11.978;2023-02-26T14:22:36;96644.00;;;4.99;28.19
25350;BME280;13302;48.796;11.978;2023-02-26T14:25:39;96650.13;;;5.04;27.86
25350;BME280;13302;48.796;11.978;2023-02-26T14:31:19;96657.38;;;5.09;27.91
25350;BME280;13302;48.796;11.978;2023-02-26T14:34:14;96667.69;;;5.12;27.83
25350;BME280;13302;48.796;11.978;2023-02-26T14:37:06;96671.25;;;5.13;27.88
25350;BME280;13302;48.796;11.978;2023-02-26T14:40:12;96685.44;;;5.15;27.78
25350;BME280;13302;48.796;11.978;2023-02-26T14:43:03;96695.59;;;5.14;27.77
25350;BME280;13302;48.796;11.978;2023-02-26T14:45:51;96710.25;;;5.10;27.98
25350;BME280;13302;48.796;11.978;2023-02-26T14:48:39;96717.03;;;5.03;27.91
25350;BME280;13302;48.796;11.978;2023-02-26T14:58:00;96714.06;;;4.83;28.42
25350;BME280;13302;48.796;11.978;2023-02-26T15:01:22;96706.81;;;4.78;28.56
25350;BME280;13302;48.796;11.978;2023-02-26T15:04:25;96718.88;;;4.77;28.53
25350;BME280;13302;48.796;11.978;2023-02-26T15:23:43;96739.03;;;4.81;28.67
25350;BME280;13302;48.796;11.978;2023-02-26T15:26:37;96736.28;;;4.81;28.27
25350;BME280;13302;48.796;11.978;2023-02-26T15:29:29;96739.31;;;4.80;28.44
25350;BME280;13302;48.796;11.978;2023-02-26T15:32:25;96743.22;;;4.79;28.72
25350;BME280;13302;48.796;11.978;2023-02-26T15:35:19;96751.91;;;4.81;28.72
25350;BME280;13302;48.796;11.978;2023-02-26T15:38:08;96743.84;;;4.84;28.67
25350;BME280;13302;48.796;11.978;2023-02-26T15:40:59;96749.34;;;4.84;28.59
25350;BME280;13302;48.796;11.978;2023-02-26T15:43:55;96754.50;;;4.86;28.79
25350;BME280;13302;48.796;11.978;2023-02-26T15:46:44;96757.72;;;4.88;28.80
25350;BME280;13302;48.796;11.978;2023-02-26T15:49:38;96762.09;;;4.89;29.05
25350;BME280;13302;48.796;11.978;2023-02-26T15:52:26;96759.03;;;4.90;28.75
25350;BME280;13302;48.796;11.978;2023-02-26T15:55:15;96760.97;;;4.90;28.98
25350;BME280;13302;48.796;11.978;2023-02-26T15:58:05;96772.09;;;4.93;29.04
25350;BME280;13302;48.796;11.978;2023-02-26T16:00:53;96775.00;;;4.97;28.88
25350;BME280;13302;48.796;11.978;2023-02-26T16:03:41;96784.34;;;4.96;29.08
25350;BME280;13302;48.796;11.978;2023-02-26T16:06:31;96798.00;;;4.87;29.29
25350;BME280;13302;48.796;11.978;2023-02-26T16:12:19;96801.16;;;4.72;29.61
25350;BME280;13302;48.796;11.978;2023-02-26T16:15:13;96802.88;;;4.68;29.28
25350;BME280;13302;48.796;11.978;2023-02-26T16:18:04;96802.19;;;4.62;29.32
25350;BME280;13302;48.796;11.978;2023-02-26T16:20:55;96810.06;;;4.55;29.52
25350;BME280;13302;48.796;11.978;2023-02-26T16:23:48;96817.91;;;4.48;29.35
25350;BME280;13302;48.796;11.978;2023-02-26T16:26:48;96834.44;;;4.43;29.40
25350;BME280;13302;48.796;11.978;2023-02-26T16:29:35;96822.22;;;4.41;29.51
25350;BME280;13302;48.796;11.978;2023-02-26T16:32:25;96817.38;;;4.38;29.46
25350;BME280;13302;48.796;11.978;2023-02-26T16:35:16;96836.81;;;4.36;29.37
25350;BME280;13302;48.796;11.978;2023-02-26T16:38:23;96832.47;;;4.35;29.42
25350;BME280;13302;48.796;11.978;2023-02-26T16:41:11;96841.50;;;4.36;29.46
25350;BME280;13302;48.796;11.978;2023-02-26T16:43:59;96845.53;;;4.38;29.39
25350;BME280;13302;48.796;11.978;2023-02-26T16:46:49;96854.25;;;4.40;29.37
25350;BME280;13302;48.796;11.978;2023-02-26T16:49:39;96866.00;;;4.41;29.42
25350;BME280;13302;48.796;11.978;2023-02-26T16:52:27;96864.06;;;4.41;29.43
25350;BME280;13302;48.796;11.978;2023-02-26T16:55:14;96873.09;;;4.42;29.53
25350;BME280;13302;48.796;11.978;2023-02-26T16:58:06;96874.50;;;4.39;29.27
25350;BME280;13302;48.796;11.978;2023-02-26T17:01:15;96869.38;;;4.38;29.58
25350;BME280;13302;48.796;11.978;2023-02-26T17:04:04;96878.38;;;4.38;29.51
25350;BME280;13302;48.796;11.978;2023-02-26T17:06:52;96890.75;;;4.36;29.49
25350;BME280;13302;48.796;11.978;2023-02-26T17:09:40;96895.41;;;4.35;29.60
25350;BME280;13302;48.796;11.978;2023-02-26T17:15:27;96894.72;;;4.30;29.66
25350;BME280;13302;48.796;11.978;2023-02-26T17:18:16;96901.00;;;4.30;29.70
25350;BME280;13302;48.796;11.978;2023-02-26T17:21:03;96905.66;;;4.30;29.77
25350;BME280;13302;48.796;11.978;2023-02-26T17:23:51;96912.28;;;4.29;29.86
25350;BME280;13302;48.796;11.978;2023-02-26T17:26:38;96918.56;;;4.29;29.84
25350;BME280;13302;48.796;11.978;2023-02-26T17:29:36;96915.00;;;4.29;29.81
25350;BME280;13302;48.796;11.978;2023-02-26T17:32:25;96923.09;;;4.34;29.85
25350;BME280;13302;48.796;11.978;2023-02-26T17:35:14;96925.22;;;4.37;29.87
25350;BME280;13302;48.796;11.978;2023-02-26T17:38:02;96927.84;;;4.42;29.66
25350;BME280;13302;48.796;11.978;2023-02-26T17:40:50;96929.94;;;4.45;29.67